sensor_id;sensor_type;location;lat;lon;timestamp;pressure;altitude;pressure_sealevel;temperature;humidity
23321;BME280;33376;51.306;4.752;2023-02-13T00:02:11;104126.59;;;7.33;100.00
23321;BME280;33376;51.306;4.752;2023-02-13T00:04:38;104123.16;;;7.40;100.00
23321;BME280;33376;51.306;4.752;2023-02-13T00:07:03;104121.38;;;7.39;100.00
23321;BME280;33376;51.306;4.752;2023-02-13T00:09:28;104120.38;;;7.28;100.00
23321;BME280;33376;51.306;4.752;2023-02-13T00:11:54;104118.47;;;7.16;100.00
23321;BME280;33376;51.306;4.752;2023-02-13T00:14:19;104112.16;;;7.04;100.00
23321;BME280;33376;51.306;4.752;2023-02-13T00:16:44;104113.06;;;7.04;100.00
23321;BME280;33376;51.306;4.752;2023-02-13T00:19:09;104108.56;;;6.96;100.00
23321;BME280;33376;51.306;4.752;2023-02-13T00:21:34;104106.53;;;6.75;100.00
23321;BME280;33376;51.306;4.752;2023-02-13T00:24:00;104106.34;;;6.60;100.00
23321;BME280;33376;51.306;4.752;2023-02-13T00:26:25;104094.88;;;6.57;100.00
23321;BME280;33376;51.306;4.752;2023-02-13T00:28:50;104086.94;;;6.55;100.00
23321;BME280;33376;51.306;4.752;2023-02-13T00:31:17;104084.22;;;6.48;100.00
23321;BME280;33376;51.306;4.752;2023-02-13T00:33:42;104092.03;;;6.43;100.00
23321;BME280;33376;51.306;4.752;2023-02-13T00:36:09;104078.59;;;6.24;100.00
23321;BME280;33376;51.306;4.752;2023-02-13T00:38:35;104075.00;;;6.20;100.00
23321;BME280;33376;51.306;4.752;2023-02-13T00:41:01;104077.38;;;6.04;100.00
23321;BME280;33376;51.306;4.752;2023-02-13T00:43:26;104071.13;;;5.97;100.00
23321;BME280;33376;51.306;4.752;2023-02-13T00:45:51;104069.38;;;5.97;100.00
23321;BME280;33376;51.306;4.752;2023-02-13T00:48:16;104077.28;;;5.97;100.00
23321;BME280;33376;51.306;4.752;2023-02-13T00:50:42;104072.75;;;5.89;100.00
23321;BME280;33376;51.306;4.752;2023-02-13T00:53:07;104065.81;;;5.94;100.00
23321;BME280;33376;51.306;4.752;2023-02-13T00:55:32;104056.09;;;5.88;100.00
23321;BME280;33376;51.306;4.752;2023-02-13T00:57:59;104061.34;;;5.88;100.00
23321;BME280;33376;51.306;4.752;2023-02-13T01:00:24;104052.56;;;5.89;100.00
23321;BME280;33376;51.306;4.752;2023-02-13T01:02:49;104060.28;;;5.79;100.00
23321;BME280;33376;51.306;4.752;2023-02-13T01:05:14;104054.06;;;5.74;100.00
23321;BME280;33376;51.306;4.752;2023-02-13T01:07:40;104049.63;;;5.73;100.00
23321;BME280;33376;51.306;4.752;2023-02-13T01:10:05;104051.44;;;5.75;100.00
23321;BME280;33376;51.306;4.752;2023-02-13T01:12:30;104059.72;;;5.49;100.00
23321;BME280;33376;51.306;4.752;2023-02-13T01:14:56;104062.44;;;5.52;100.00
23321;BME280;33376;51.306;4.752;2023-02-13T01:17:21;104051.91;;;5.50;100.00
23321;BME280;33376;51.306;4.752;2023-02-13T01:19:46;104059.81;;;5.52;100.00
23321;BME280;33376;51.306;4.752;2023-02-13T01:22:11;104056.34;;;5.54;100.00
23321;BME280;33376;51.306;4.752;2023-02-13T01:24:36;104061.44;;;5.45;100.00
23321;BME280;33376;51.306;4.752;2023-02-13T01:27:02;104061.31;;;5.39;100.00
23321;BME280;33376;51.306;4.752;2023-02-13T01:29:27;104051.41;;;5.23;100.00
23321;BME280;33376;51.306;4.752;2023-02-13T01:31:52;104054.72;;;5.13;100.00
23321;BME280;33376;51.306;4.752;2023-02-13T01:34:18;104052.88;;;5.11;100.00
23321;BME280;33376;51.306;4.752;2023-02-13T01:36:43;104059.91;;;5.09;100.00
23321;BME280;33376;51.306;4.752;2023-02-13T01:39:09;104056.22;;;5.01;100.00
23321;BME280;33376;51.306;4.752;2023-02-13T01:41:35;104049.34;;;5.07;100.00
23321;BME280;33376;51.306;4.752;2023-02-13T01:44:00;104051.03;;;5.04;100.00
23321;BME280;33376;51.306;4.752;2023-02-13T01:46:27;104047.75;;;5.15;100.00
23321;BME280;33376;51.306;4.752;2023-02-13T01:48:56;104056.75;;;4.83;100.00
23321;BME280;33376;51.306;4.752;2023-02-13T01:51:23;104054.19;;;4.86;100.00
23321;BME280;33376;51.306;4.752;2023-02-13T01:54:03;104045.31;;;4.81;100.00
23321;BME280;33376;51.306;4.752;2023-02-13T01:56:35;104040.69;;;4.70;100.00
23321;BME280;33376;51.306;4.752;2023-02-13T01:59:03;104047.50;;;4.60;100.00
23321;BME280;33376;51.306;4.752;2023-02-13T02:01:29;104051.50;;;4.43;100.00
23321;BME280;33376;51.306;4.752;2023-02-13T02:04:17;104047.97;;;4.42;100.00
23321;BME280;33376;51.306;4.752;2023-02-13T02:06:49;104049.00;;;4.49;100.00
23321;BME280;33376;51.306;4.752;2023-02-13T02:09:18;104042.59;;;4.36;100.00
23321;BME280;33376;51.306;4.752;2023-02-13T02:11:51;104038.28;;;4.38;100.00
23321;BME280;33376;51.306;4.752;2023-02-13T02:14:19;104037.47;;;4.42;100.00
23321;BME280;33376;51.306;4.752;2023-02-13T02:16:44;104032.97;;;4.35;100.00
23321;BME280;33376;51.306;4.752;2023-02-13T02:19:14;104037.44;;;4.41;100.00
23321;BME280;33376;51.306;4.752;2023-02-13T02:24:17;104038.75;;;4.21;100.00
23321;BME280;33376;51.306;4.752;2023-02-13T02:27:10;104034.13;;;4.09;100.00
23321;BME280;33376;51.306;4.752;2023-02-13T02:32:40;104030.53;;;4.06;100.00
23321;BME280;33376;51.306;4.752;2023-02-13T02:35:11;104026.19;;;4.08;100.00
23321;BME280;33376;51.306;4.752;2023-02-13T02:38:01;104024.31;;;4.02;100.00
23321;BME280;33376;51.306;4.752;2023-02-13T02:40:43;104019.84;;;3.98;100.00
23321;BME280;33376;51.306;4.752;2023-02-13T02:43:57;104023.91;;;3.84;100.00
23321;BME280;33376;51.306;4.752;2023-02-13T02:46:15;104007.19;;;3.81;100.00
23321;BME280;33376;51.306;4.752;2023-02-13T02:48:56;104006.31;;;3.82;100.00
23321;BME280;33376;51.306;4.752;2023-02-13T02:54:08;104001.81;;;3.75;100.00
23321;BME280;33376;51.306;4.752;2023-02-13T02:56:55;103996.91;;;3.54;100.00
23321;BME280;33376;51.306;4.752;2023-02-13T02:59:22;103980.94;;;3.45;100.00
23321;BME280;33376;51.306;4.752;2023-02-13T03:02:08;103938.84;;;3.39;100.00
23321;BME280;33376;51.306;4.752;2023-02-13T03:04:53;103947.59;;;3.40;100.00
23321;BME280;33376;51.306;4.752;2023-02-13T03:07:38;103928.84;;;3.25;100.00
23321;BME280;33376;51.306;4.752;2023-02-13T03:10:05;103925.59;;;3.33;100.00
23321;BME280;33376;51.306;4.752;2023-02-13T03:12:50;103922.31;;;3.08;100.00
23321;BME280;33376;51.306;4.752;2023-02-13T03:15:37;103917.72;;;2.99;100.00
23321;BME280;33376;51.306;4.752;2023-02-13T03:18:23;103917.38;;;2.85;100.00
23321;BME280;33376;51.306;4.752;2023-02-13T03:21:12;103914.56;;;2.79;100.00
23321;BME280;33376;51.306;4.752;2023-02-13T03:24:14;103914.91;;;2.91;100.00
23321;BME280;33376;51.306;4.752;2023-02-13T03:32:00;103888.59;;;2.54;100.00
23321;BME280;33376;51.306;4.752;2023-02-13T03:34:31;103881.25;;;2.41;100.00
23321;BME280;33376;51.306;4.752;2023-02-13T03:37:18;103858.72;;;2.48;100.00
23321;BME280;33376;51.306;4.752;2023-02-13T03:40:06;103807.22;;;2.47;100.00
23321;BME280;33376;51.306;4.752;2023-02-13T03:45:03;103785.13;;;2.37;100.00
23321;BME280;33376;51.306;4.752;2023-02-13T03:47:52;103774.81;;;2.43;100.00
23321;BME280;33376;51.306;4.752;2023-02-13T03:50:19;103768.56;;;2.38;100.00
23321;BME280;33376;51.306;4.752;2023-02-13T03:55:12;103752.06;;;2.41;100.00
23321;BME280;33376;51.306;4.752;2023-02-13T03:57:58;103751.94;;;2.36;100.00
23321;BME280;33376;51.306;4.752;2023-02-13T04:00:44;103742.09;;;2.26;100.00
23321;BME280;33376;51.306;4.752;2023-02-13T04:03:19;103730.91;;;2.33;100.00
23321;BME280;33376;51.306;4.752;2023-02-13T04:05:48;103727.50;;;2.36;100.00
23321;BME280;33376;51.306;4.752;2023-02-13T04:08:15;103742.34;;;2.37;100.00
23321;BME280;33376;51.306;4.752;2023-02-13T04:11:16;103734.47;;;2.35;100.00
23321;BME280;33376;51.306;4.752;2023-02-13T04:13:33;103734.47;;;2.35;100.00
23321;BME280;33376;51.306;4.752;2023-02-13T04:16:05;103722.94;;;2.29;100.00
23321;BME280;33376;51.306;4.752;2023-02-13T04:18:34;103719.47;;;2.30;100.00
23321;BME280;33376;51.306;4.752;2023-02-13T04:21:02;103718.94;;;2.43;100.00
23321;BME280;33376;51.306;4.752;2023-02-13T04:23:28;103723.44;;;2.48;100.00
23321;BME280;33376;51.306;4.752;2023-02-13T04:25:53;103715.72;;;2.54;100.00
23321;BME280;33376;51.306;4.752;2023-02-13T04:28:19;103704.50;;;2.58;100.00
23321;BME280;33376;51.306;4.752;2023-02-13T04:30:45;103693.91;;;2.55;100.00
23321;BME280;33376;51.306;4.752;2023-02-13T04:33:10;103680.06;;;2.59;100.00
23321;BME280;33376;51.306;4.752;2023-02-13T04:35:38;103680.19;;;2.65;100.00
23321;BME280;33376;51.306;4.752;2023-02-13T04:38:04;103671.78;;;2.78;100.00
23321;BME280;33376;51.306;4.752;2023-02-13T04:40:29;103659.94;;;2.97;100.00
23321;BME280;33376;51.306;4.752;2023-02-13T04:42:55;103648.88;;;3.10;100.00
23321;BME280;33376;51.306;4.752;2023-02-13T04:45:20;103644.34;;;3.02;100.00
23321;BME280;33376;51.306;4.752;2023-02-13T04:47:49;103645.22;;;3.03;100.00
23321;BME280;33376;51.306;4.752;2023-02-13T04:50:16;103626.00;;;3.02;100.00
23321;BME280;33376;51.306;4.752;2023-02-13T04:52:41;103618.91;;;2.97;100.00
23321;BME280;33376;51.306;4.752;2023-02-13T04:55:06;103596.97;;;2.94;100.00
23321;BME280;33376;51.306;4.752;2023-02-13T04:57:32;103573.25;;;2.86;100.00
23321;BME280;33376;51.306;4.752;2023-02-13T04:59:57;103566.22;;;2.84;100.00
23321;BME280;33376;51.306;4.752;2023-02-13T05:02:22;103552.91;;;2.75;100.00
23321;BME280;33376;51.306;4.752;2023-02-13T05:04:47;103536.19;;;2.68;100.00
23321;BME280;33376;51.306;4.752;2023-02-13T05:07:13;103534.50;;;2.70;100.00
23321;BME280;33376;51.306;4.752;2023-02-13T05:09:38;103531.94;;;2.73;100.00
23321;BME280;33376;51.306;4.752;2023-02-13T05:12:03;103524.97;;;2.74;100.00
23321;BME280;33376;51.306;4.752;2023-02-13T05:14:28;103516.34;;;2.81;100.00
23321;BME280;33376;51.306;4.752;2023-02-13T05:16:54;103517.13;;;2.75;100.00
23321;BME280;33376;51.306;4.752;2023-02-13T05:19:19;103519.66;;;2.69;100.00
23321;BME280;33376;51.306;4.752;2023-02-13T05:21:44;103554.53;;;2.68;100.00
23321;BME280;33376;51.306;4.752;2023-02-13T05:24:28;103551.06;;;2.69;100.00
23321;BME280;33376;51.306;4.752;2023-02-13T05:26:53;103560.75;;;2.73;100.00
23321;BME280;33376;51.306;4.752;2023-02-13T05:29:18;103557.25;;;2.73;100.00
23321;BME280;33376;51.306;4.752;2023-02-13T05:31:50;103558.91;;;2.68;100.00
23321;BME280;33376;51.306;4.752;2023-02-13T05:34:17;103550.25;;;2.72;100.00
23321;BME280;33376;51.306;4.752;2023-02-13T05:36:42;103552.81;;;2.69;100.00
23321;BME280;33376;51.306;4.752;2023-02-13T05:39:07;103555.44;;;2.70;100.00
23321;BME280;33376;51.306;4.752;2023-02-13T05:41:33;103551.19;;;2.75;100.00
23321;BME280;33376;51.306;4.752;2023-02-13T05:43:58;103561.34;;;3.03;100.00
23321;BME280;33376;51.306;4.752;2023-02-13T05:46:23;103558.72;;;2.60;100.00
23321;BME280;33376;51.306;4.752;2023-02-13T05:48:49;103557.19;;;2.71;100.00
23321;BME280;33376;51.306;4.752;2023-02-13T05:51:14;103555.22;;;2.58;100.00
23321;BME280;33376;51.306;4.752;2023-02-13T05:53:39;103549.09;;;2.59;100.00
23321;BME280;33376;51.306;4.752;2023-02-13T05:56:04;103550.72;;;2.53;100.00
23321;BME280;33376;51.306;4.752;2023-02-13T05:58:30;103556.16;;;2.63;100.00
23321;BME280;33376;51.306;4.752;2023-02-13T06:00:56;103551.72;;;2.59;100.00
23321;BME280;33376;51.306;4.752;2023-02-13T06:03:22;103540.59;;;2.69;100.00
23321;BME280;33376;51.306;4.752;2023-02-13T06:05:48;103525.72;;;2.68;100.00
23321;BME280;33376;51.306;4.752;2023-02-13T06:08:13;103519.00;;;2.82;100.00
23321;BME280;33376;51.306;4.752;2023-02-13T06:10:39;103509.41;;;2.81;100.00
23321;BME280;33376;51.306;4.752;2023-02-13T06:13:04;103514.88;;;2.93;100.00
23321;BME280;33376;51.306;4.752;2023-02-13T06:15:29;103515.06;;;3.03;100.00
23321;BME280;33376;51.306;4.752;2023-02-13T06:17:55;103512.78;;;2.76;100.00
23321;BME280;33376;51.306;4.752;2023-02-13T06:20:20;103511.06;;;2.78;100.00
23321;BME280;33376;51.306;4.752;2023-02-13T06:22:48;103511.47;;;2.56;100.00
23321;BME280;33376;51.306;4.752;2023-02-13T06:25:14;103511.97;;;2.38;100.00
23321;BME280;33376;51.306;4.752;2023-02-13T06:27:40;103510.00;;;2.28;100.00
23321;BME280;33376;51.306;4.752;2023-02-13T06:30:05;103510.38;;;2.06;100.00
23321;BME280;33376;51.306;4.752;2023-02-13T06:32:31;103506.16;;;2.11;100.00
23321;BME280;33376;51.306;4.752;2023-02-13T06:34:56;103504.31;;;2.07;100.00
23321;BME280;33376;51.306;4.752;2023-02-13T06:37:21;103522.28;;;1.92;100.00
23321;BME280;33376;51.306;4.752;2023-02-13T06:39:46;103519.34;;;1.79;100.00
23321;BME280;33376;51.306;4.752;2023-02-13T06:42:12;103529.44;;;1.64;100.00
23321;BME280;33376;51.306;4.752;2023-02-13T06:44:37;103516.94;;;1.52;100.00
23321;BME280;33376;51.306;4.752;2023-02-13T06:47:02;103510.88;;;1.53;100.00
23321;BME280;33376;51.306;4.752;2023-02-13T06:49:27;103518.81;;;1.58;100.00
23321;BME280;33376;51.306;4.752;2023-02-13T06:51:52;103514.69;;;1.67;100.00
23321;BME280;33376;51.306;4.752;2023-02-13T06:54:18;103517.84;;;1.54;100.00
23321;BME280;33376;51.306;4.752;2023-02-13T06:56:43;103517.78;;;1.51;100.00
23321;BME280;33376;51.306;4.752;2023-02-13T06:59:08;103516.81;;;1.47;100.00
23321;BME280;33376;51.306;4.752;2023-02-13T07:01:33;103526.53;;;1.52;100.00
23321;BME280;33376;51.306;4.752;2023-02-13T07:03:58;103523.09;;;1.54;100.00
23321;BME280;33376;51.306;4.752;2023-02-13T07:06:24;103520.06;;;1.39;100.00
23321;BME280;33376;51.306;4.752;2023-02-13T07:08:49;103523.31;;;1.29;100.00
23321;BME280;33376;51.306;4.752;2023-02-13T07:11:19;103528.47;;;1.26;100.00
23321;BME280;33376;51.306;4.752;2023-02-13T07:13:44;103526.59;;;1.22;100.00
23321;BME280;33376;51.306;4.752;2023-02-13T07:16:10;103528.63;;;1.32;100.00
23321;BME280;33376;51.306;4.752;2023-02-13T07:18:36;103528.69;;;1.35;100.00
23321;BME280;33376;51.306;4.752;2023-02-13T07:21:01;103545.47;;;1.43;100.00
23321;BME280;33376;51.306;4.752;2023-02-13T07:23:27;103540.28;;;1.44;100.00
23321;BME280;33376;51.306;4.752;2023-02-13T07:25:52;103537.63;;;1.43;100.00
23321;BME280;33376;51.306;4.752;2023-02-13T07:28:17;103536.38;;;1.63;100.00
23321;BME280;33376;51.306;4.752;2023-02-13T07:30:43;103534.28;;;1.84;100.00
23321;BME280;33376;51.306;4.752;2023-02-13T07:33:08;103527.03;;;1.73;100.00
23321;BME280;33376;51.306;4.752;2023-02-13T07:35:34;103534.91;;;1.74;100.00
23321;BME280;33376;51.306;4.752;2023-02-13T07:38:01;103529.34;;;1.61;100.00
23321;BME280;33376;51.306;4.752;2023-02-13T07:40:27;103532.94;;;1.64;100.00
23321;BME280;33376;51.306;4.752;2023-02-13T07:42:52;103534.41;;;1.53;100.00
23321;BME280;33376;51.306;4.752;2023-02-13T07:45:17;103524.91;;;1.58;100.00
23321;BME280;33376;51.306;4.752;2023-02-13T07:47:42;103532.19;;;1.70;100.00
23321;BME280;33376;51.306;4.752;2023-02-13T07:50:08;103528.31;;;1.54;100.00
23321;BME280;33376;51.306;4.752;2023-02-13T07:52:33;103529.22;;;1.55;100.00
23321;BME280;33376;51.306;4.752;2023-02-13T07:55:01;103530.22;;;1.60;100.00
23321;BME280;33376;51.306;4.752;2023-02-13T07:57:26;103529.38;;;1.62;100.00
23321;BME280;33376;51.306;4.752;2023-02-13T07:59:51;103522.81;;;1.79;100.00
23321;BME280;33376;51.306;4.752;2023-02-13T08:02:16;103524.22;;;2.01;100.00
23321;BME280;33376;51.306;4.752;2023-02-13T08:04:42;103520.00;;;2.06;100.00
23321;BME280;33376;51.306;4.752;2023-02-13T08:07:10;103522.03;;;2.20;100.00
23321;BME280;33376;51.306;4.752;2023-02-13T08:09:36;103520.69;;;2.37;100.00
23321;BME280;33376;51.306;4.752;2023-02-13T08:12:19;103519.31;;;2.54;100.00
23321;BME280;33376;51.306;4.752;2023-02-13T08:14:45;103524.00;;;2.29;100.00
23321;BME280;33376;51.306;4.752;2023-02-13T08:17:10;103527.06;;;2.50;100.00
23321;BME280;33376;51.306;4.752;2023-02-13T08:19:35;103519.25;;;2.51;100.00
23321;BME280;33376;51.306;4.752;2023-02-13T08:22:00;103521.56;;;2.38;100.00
23321;BME280;33376;51.306;4.752;2023-02-13T08:24:26;103528.34;;;2.28;100.00
23321;BME280;33376;51.306;4.752;2023-02-13T08:26:51;103526.72;;;2.35;100.00
23321;BME280;33376;51.306;4.752;2023-02-13T08:29:16;103529.47;;;2.39;100.00
23321;BME280;33376;51.306;4.752;2023-02-13T08:31:41;103535.09;;;2.57;100.00
23321;BME280;33376;51.306;4.752;2023-02-13T08:34:07;103526.63;;;2.70;100.00
23321;BME280;33376;51.306;4.752;2023-02-13T08:36:32;103520.81;;;2.85;100.00
23321;BME280;33376;51.306;4.752;2023-02-13T08:38:58;103523.63;;;2.95;100.00
23321;BME280;33376;51.306;4.752;2023-02-13T08:41:23;103520.00;;;2.89;100.00
23321;BME280;33376;51.306;4.752;2023-02-13T08:43:48;103524.31;;;2.84;100.00
23321;BME280;33376;51.306;4.752;2023-02-13T08:46:14;103526.66;;;2.72;100.00
23321;BME280;33376;51.306;4.752;2023-02-13T08:48:40;103533.59;;;2.70;100.00
23321;BME280;33376;51.306;4.752;2023-02-13T08:51:06;103535.38;;;2.71;100.00
23321;BME280;33376;51.306;4.752;2023-02-13T08:53:32;103528.97;;;3.00;100.00
23321;BME280;33376;51.306;4.752;2023-02-13T08:55:57;103541.50;;;3.16;100.00
23321;BME280;33376;51.306;4.752;2023-02-13T08:58:22;103535.78;;;3.37;100.00
23321;BME280;33376;51.306;4.752;2023-02-13T09:00:48;103532.34;;;3.41;100.00
23321;BME280;33376;51.306;4.752;2023-02-13T09:03:13;103528.47;;;3.68;100.00
23321;BME280;33376;51.306;4.752;2023-02-13T09:05:38;103530.47;;;3.83;100.00
23321;BME280;33376;51.306;4.752;2023-02-13T09:08:04;103525.38;;;3.95;100.00
23321;BME280;33376;51.306;4.752;2023-02-13T09:10:30;103518.81;;;4.24;100.00
23321;BME280;33376;51.306;4.752;2023-02-13T09:12:55;103518.22;;;4.44;100.00
23321;BME280;33376;51.306;4.752;2023-02-13T09:15:21;103520.25;;;4.67;100.00
23321;BME280;33376;51.306;4.752;2023-02-13T09:17:46;103509.94;;;4.82;100.00
23321;BME280;33376;51.306;4.752;2023-02-13T09:20:11;103507.44;;;4.95;100.00
23321;BME280;33376;51.306;4.752;2023-02-13T09:22:38;103509.34;;;5.07;100.00
23321;BME280;33376;51.306;4.752;2023-02-13T09:25:03;103502.47;;;5.22;100.00
23321;BME280;33376;51.306;4.752;2023-02-13T09:27:29;103504.19;;;5.19;100.00
23321;BME280;33376;51.306;4.752;2023-02-13T09:29:54;103505.94;;;5.15;100.00
23321;BME280;33376;51.306;4.752;2023-02-13T09:32:19;103500.81;;;5.33;100.00
23321;BME280;33376;51.306;4.752;2023-02-13T09:34:45;103487.81;;;5.47;100.00
23321;BME280;33376;51.306;4.752;2023-02-13T09:37:10;103479.22;;;5.69;100.00
23321;BME280;33376;51.306;4.752;2023-02-13T09:39:35;103473.22;;;5.83;100.00
23321;BME280;33376;51.306;4.752;2023-02-13T09:42:01;103467.16;;;5.98;100.00
23321;BME280;33376;51.306;4.752;2023-02-13T09:49:30;103433.00;;;6.19;100.00
23321;BME280;33376;51.306;4.752;2023-02-13T09:51:56;103402.41;;;6.50;100.00
23321;BME280;33376;51.306;4.752;2023-02-13T09:54:22;103383.09;;;6.72;100.00
23321;BME280;33376;51.306;4.752;2023-02-13T09:56:56;103379.63;;;6.77;100.00
23321;BME280;33376;51.306;4.752;2023-02-13T10:05:00;103356.75;;;6.99;100.00
23321;BME280;33376;51.306;4.752;2023-02-13T10:08:16;103369.97;;;7.11;100.00
23321;BME280;33376;51.306;4.752;2023-02-13T10:10:20;103383.16;;;7.18;100.00
23321;BME280;33376;51.306;4.752;2023-02-13T10:17:56;103420.09;;;7.55;100.00
23321;BME280;33376;51.306;4.752;2023-02-13T10:20:36;103433.28;;;7.64;100.00
23321;BME280;33376;51.306;4.752;2023-02-13T10:25:45;103457.03;;;7.73;100.00
23321;BME280;33376;51.306;4.752;2023-02-13T10:28:14;103471.97;;;7.84;100.00
23321;BME280;33376;51.306;4.752;2023-02-13T10:33:14;103512.47;;;8.07;100.00
23321;BME280;33376;51.306;4.752;2023-02-13T10:35:55;103530.06;;;8.23;100.00
23321;BME280;33376;51.306;4.752;2023-02-13T10:38:23;103552.06;;;8.28;100.00
23321;BME280;33376;51.306;4.752;2023-02-13T10:43:37;103597.00;;;8.40;100.00
23321;BME280;33376;51.306;4.752;2023-02-13T10:48:54;103632.25;;;8.36;100.00
23321;BME280;33376;51.306;4.752;2023-02-13T10:56:24;103678.94;;;8.54;100.00
23321;BME280;33376;51.306;4.752;2023-02-13T10:59:04;103703.63;;;8.57;100.00
23321;BME280;33376;51.306;4.752;2023-02-13T11:01:32;103726.56;;;8.64;100.00
23321;BME280;33376;51.306;4.752;2023-02-13T11:04:07;103734.47;;;8.72;100.00
23321;BME280;33376;51.306;4.752;2023-02-13T11:06:34;103740.66;;;8.78;100.00
23321;BME280;33376;51.306;4.752;2023-02-13T11:09:02;103749.44;;;8.93;100.00
23321;BME280;33376;51.306;4.752;2023-02-13T11:11:29;103768.84;;;8.96;100.00
23321;BME280;33376;51.306;4.752;2023-02-13T11:14:14;103776.75;;;9.08;100.00
23321;BME280;33376;51.306;4.752;2023-02-13T11:19:19;103807.66;;;9.14;100.00
23321;BME280;33376;51.306;4.752;2023-02-13T11:21:46;103815.56;;;9.23;100.00
23321;BME280;33376;51.306;4.752;2023-02-13T11:24:20;103830.56;;;9.31;100.00
23321;BME280;33376;51.306;4.752;2023-02-13T11:26:49;103841.16;;;9.34;100.00
23321;BME280;33376;51.306;4.752;2023-02-13T11:29:15;103863.22;;;9.38;100.00
23321;BME280;33376;51.306;4.752;2023-02-13T11:31:42;103877.31;;;9.52;100.00
23321;BME280;33376;51.306;4.752;2023-02-13T11:34:26;103889.66;;;9.53;100.00
23321;BME280;33376;51.306;4.752;2023-02-13T11:36:53;103908.22;;;9.60;100.00
23321;BME280;33376;51.306;4.752;2023-02-13T11:39:20;103924.97;;;9.58;100.00
23321;BME280;33376;51.306;4.752;2023-02-13T11:41:46;103940.00;;;9.66;100.00
23321;BME280;33376;51.306;4.752;2023-02-13T11:44:19;103965.56;;;9.84;100.00
23321;BME280;33376;51.306;4.752;2023-02-13T11:46:49;103964.66;;;9.86;100.00
23321;BME280;33376;51.306;4.752;2023-02-13T11:49:18;103978.81;;;9.85;100.00
23321;BME280;33376;51.306;4.752;2023-02-13T11:51:48;104004.44;;;9.88;100.00
23321;BME280;33376;51.306;4.752;2023-02-13T11:56:52;104011.47;;;10.07;100.00
23321;BME280;33376;51.306;4.752;2023-02-13T11:59:20;104011.47;;;10.19;100.00
23321;BME280;33376;51.306;4.752;2023-02-13T12:01:46;104013.25;;;10.27;100.00
23321;BME280;33376;51.306;4.752;2023-02-13T12:04:17;103995.53;;;10.37;100.00
23321;BME280;33376;51.306;4.752;2023-02-13T12:06:59;103998.13;;;10.45;100.00
23321;BME280;33376;51.306;4.752;2023-02-13T12:09:25;103987.47;;;10.55;100.00
23321;BME280;33376;51.306;4.752;2023-02-13T12:11:51;103986.59;;;10.52;100.00
23321;BME280;33376;51.306;4.752;2023-02-13T12:14:50;103986.56;;;10.62;100.00
23321;BME280;33376;51.306;4.752;2023-02-13T12:17:14;103966.88;;;10.98;100.00
23321;BME280;33376;51.306;4.752;2023-02-13T12:19:43;103966.63;;;11.31;100.00
23321;BME280;33376;51.306;4.752;2023-02-13T12:30:02;103925.81;;;11.39;100.00
23321;BME280;33376;51.306;4.752;2023-02-13T12:32:56;103929.34;;;11.41;100.00
23321;BME280;33376;51.306;4.752;2023-02-13T12:35:27;103923.16;;;11.39;100.00
23321;BME280;33376;51.306;4.752;2023-02-13T12:45:52;103932.22;;;11.16;100.00
23321;BME280;33376;51.306;4.752;2023-02-13T12:51:12;103932.34;;;11.02;100.00
23321;BME280;33376;51.306;4.752;2023-02-13T13:06:24;103898.53;;;11.19;100.00
23321;BME280;33376;51.306;4.752;2023-02-13T13:09:39;103899.41;;;11.23;100.00
23321;BME280;33376;51.306;4.752;2023-02-13T13:12:02;103901.06;;;11.37;100.00
23321;BME280;33376;51.306;4.752;2023-02-13T13:14:37;103888.56;;;11.45;100.00
23321;BME280;33376;51.306;4.752;2023-02-13T13:19:43;103876.09;;;11.49;100.00
23321;BME280;33376;51.306;4.752;2023-02-13T13:25:02;103858.47;;;11.43;100.00
23321;BME280;33376;51.306;4.752;2023-02-13T13:27:32;103863.81;;;11.40;100.00
23321;BME280;33376;51.306;4.752;2023-02-13T13:30:05;103854.00;;;11.47;100.00
23321;BME280;33376;51.306;4.752;2023-02-13T13:32:36;103843.22;;;11.60;100.00
23321;BME280;33376;51.306;4.752;2023-02-13T13:35:01;103848.44;;;11.74;100.00
23321;BME280;33376;51.306;4.752;2023-02-13T13:37:37;103837.78;;;11.74;100.00
23321;BME280;33376;51.306;4.752;2023-02-13T13:40:15;103850.16;;;11.75;100.00
23321;BME280;33376;51.306;4.752;2023-02-13T13:48:15;103858.16;;;11.73;100.00
23321;BME280;33376;51.306;4.752;2023-02-13T13:50:42;103840.31;;;11.85;100.00
23321;BME280;33376;51.306;4.752;2023-02-13T13:58:20;103829.53;;;11.94;100.00
23321;BME280;33376;51.306;4.752;2023-02-13T14:00:47;103809.22;;;11.90;100.00
23321;BME280;33376;51.306;4.752;2023-02-13T14:03:35;103810.84;;;12.01;100.00
23321;BME280;33376;51.306;4.752;2023-02-13T14:06:02;103807.31;;;11.99;100.00
23321;BME280;33376;51.306;4.752;2023-02-13T14:13:50;103787.78;;;12.02;100.00
23321;BME280;33376;51.306;4.752;2023-02-13T14:18:59;103758.03;;;12.35;100.00
23321;BME280;33376;51.306;4.752;2023-02-13T14:21:25;103743.38;;;12.07;100.00
23321;BME280;33376;51.306;4.752;2023-02-13T14:23:50;103752.19;;;12.10;100.00
23321;BME280;33376;51.306;4.752;2023-02-13T14:34:01;103733.56;;;12.12;100.00
23321;BME280;33376;51.306;4.752;2023-02-13T14:36:28;103728.88;;;12.27;100.00
23321;BME280;33376;51.306;4.752;2023-02-13T14:38:58;103716.38;;;12.32;100.00
23321;BME280;33376;51.306;4.752;2023-02-13T14:44:07;103693.25;;;12.36;100.00
23321;BME280;33376;51.306;4.752;2023-02-13T14:46:38;103701.47;;;12.21;100.00
23321;BME280;33376;51.306;4.752;2023-02-13T14:51:40;103720.44;;;12.01;100.00
23321;BME280;33376;51.306;4.752;2023-02-13T14:54:14;103730.94;;;12.09;100.00
23321;BME280;33376;51.306;4.752;2023-02-13T14:56:43;103725.63;;;12.09;100.00
23321;BME280;33376;51.306;4.752;2023-02-13T14:59:23;103724.63;;;12.16;100.00
23321;BME280;33376;51.306;4.752;2023-02-13T15:01:58;103727.44;;;12.05;100.00